Time;durP1;ratioP1;P1;durP2;ratioP2;P2;SDS_P1;SDS_P2;PMS_P1;PMS_P2;Temp;Humidity;BMP_temperature;BMP_pressure;BME280_temperature;BME280_humidity;BME280_pressure;Samples;Min_cycle;Max_cycle;Signal;HPM_P1;HPM_P2
2022/02/01 00:00:41;;;;;;;23.38;11.50;;;;;;;-2.70;68.78;92268.13;5049934;28;20124;-35
2022/02/01 00:03:14;;;;;;;19.00;10.40;;;;;;;-2.54;68.21;92254.63;5049969;28;20075;-36
2022/02/01 00:13:52;;;;;;;29.30;12.15;;;;;;;-2.40;69.49;92275.22;5029742;28;20447;-37
2022/02/01 00:16:49;;;;;;;11.10;4.47;;;;;;;-2.42;68.25;92274.22;5029843;28;20040;-36
2022/02/01 00:35:42;;;;;;;33.15;12.43;;;;;;;-2.06;66.87;92265.06;5033535;28;20040;-36
2022/02/01 00:40:38;;;;;;;30.75;12.00;;;;;;;-2.26;67.39;92253.81;5033208;28;20417;-37
2022/02/01 00:43:06;;;;;;;21.38;10.18;;;;;;;-2.49;68.06;92234.94;5033216;28;20124;-37
2022/02/01 00:45:32;;;;;;;23.05;9.80;;;;;;;-2.24;67.46;92252.09;5033164;28;20061;-37
2022/02/01 00:47:57;;;;;;;22.30;11.73;;;;;;;-2.09;67.01;92247.13;5034272;28;20032;-37
2022/02/01 00:50:23;;;;;;;16.65;9.82;;;;;;;-2.33;67.88;92244.25;5048541;28;20025;-37
2022/02/01 00:52:48;;;;;;;19.88;9.07;;;;;;;-2.22;68.12;92241.50;5032504;28;20113;-37
2022/02/01 00:55:14;;;;;;;24.50;9.32;;;;;;;-2.05;67.81;92236.78;5032909;28;20053;-37
2022/02/01 00:57:40;;;;;;;29.50;11.23;;;;;;;-2.27;68.04;92220.63;5032903;28;20021;-37
2022/02/01 01:00:08;;;;;;;21.50;9.35;;;;;;;-2.22;68.54;92238.06;5033137;28;20108;-36
2022/02/01 01:02:33;;;;;;;17.77;9.02;;;;;;;-2.09;68.54;92233.59;5032771;28;20112;-36
2022/02/01 01:04:59;;;;;;;21.30;8.35;;;;;;;-1.95;68.31;92224.44;5033058;28;20160;-36
2022/02/01 01:07:24;;;;;;;17.55;8.27;;;;;;;-1.82;66.50;92221.94;5033081;28;20406;-36
2022/02/01 01:09:51;;;;;;;27.30;12.02;;;;;;;-1.84;66.92;92226.38;5032524;28;20029;-36
2022/02/01 01:12:17;;;;;;;27.48;12.07;;;;;;;-1.84;66.91;92215.56;5043293;28;20048;-36
2022/02/01 01:43:29;;;;;;;14.52;7.05;;;;;;;-1.94;67.77;92200.84;5033181;28;20032;-36
2022/02/01 01:44:22;;;;;;;17.98;8.73;;;;;;;-2.10;67.26;92196.97;5052229;28;20549;-36
2022/02/01 01:53:11;;;;;;;9.00;5.40;;;;;;;-2.77;68.41;92168.72;4970473;28;20074;-36
2022/02/01 01:55:34;;;;;;;13.88;6.85;;;;;;;-2.61;68.13;92181.44;4970145;28;20560;-36
2022/02/01 01:58:00;;;;;;;10.27;6.00;;;;;;;-2.65;68.83;92189.06;5012154;28;20542;-36
2022/02/01 02:01:11;;;;;;;43.95;20.02;;;;;;;-2.70;69.78;92195.19;5031642;28;20034;-36
2022/02/01 02:03:11;;;;;;;43.95;20.20;;;;;;;-2.55;68.67;92182.16;5020734;28;20041;-36
2022/02/01 02:05:37;;;;;;;26.75;11.18;;;;;;;-2.82;69.34;92174.84;5031559;28;20033;-36
2022/02/01 02:08:03;;;;;;;19.92;10.55;;;;;;;-3.00;69.79;92169.97;5031739;28;20110;-36
2022/02/01 02:10:34;;;;;;;30.38;11.77;;;;;;;-3.29;70.40;92155.03;5031162;28;20047;-36
2022/02/01 02:15:52;;;;;;;15.57;8.32;;;;;;;-2.78;70.59;92188.84;5051639;28;20025;-36
2022/02/01 02:18:19;;;;;;;13.95;8.57;;;;;;;-2.63;69.31;92186.59;5051211;28;20021;-36
2022/02/01 02:20:52;;;;;;;21.40;10.15;;;;;;;-2.93;69.62;92172.16;5051280;28;20028;-36
2022/02/01 02:23:18;;;;;;;13.35;7.97;;;;;;;-2.59;68.94;92184.38;5051334;28;20029;-36
2022/02/01 02:25:44;;;;;;;14.25;7.75;;;;;;;-2.39;68.34;92192.91;5051249;28;20135;-36
2022/02/01 02:28:13;;;;;;;21.08;8.73;;;;;;;-2.33;67.86;92182.81;5032621;28;20396;-36
2022/02/01 02:30:39;;;;;;;20.17;8.98;;;;;;;-2.63;68.91;92160.31;5031218;28;20021;-36
2022/02/01 02:33:07;;;;;;;15.20;8.27;;;;;;;-2.35;69.51;92174.47;5013796;28;20509;-36
2022/02/01 02:35:42;;;;;;;16.38;8.77;;;;;;;-2.27;69.40;92171.97;5030865;28;20025;-36
2022/02/01 02:38:14;;;;;;;17.58;9.45;;;;;;;-2.09;69.03;92174.13;5031363;28;20025;-36
2022/02/01 02:46:00;;;;;;;23.52;9.02;;;;;;;-2.07;67.30;92141.91;5000254;28;20531;-37
2022/02/01 02:48:25;;;;;;;21.83;10.48;;;;;;;-2.43;67.99;92140.34;5030120;28;20108;-36
2022/02/01 02:50:51;;;;;;;18.17;9.25;;;;;;;-2.25;68.16;92152.56;5030660;28;20029;-36
2022/02/01 02:53:16;;;;;;;21.95;10.18;;;;;;;-2.16;67.86;92144.91;5030940;28;20036;-37
2022/02/01 02:55:42;;;;;;;22.02;9.88;;;;;;;-2.05;68.69;92136.00;5030857;28;20027;-37
2022/02/01 02:58:07;;;;;;;24.85;9.75;;;;;;;-2.63;68.86;92114.41;5030918;28;20407;-36
2022/02/01 03:00:33;;;;;;;33.22;13.15;;;;;;;-2.47;69.13;92127.09;5030495;28;20049;-36
2022/02/01 03:02:58;;;;;;;29.75;12.60;;;;;;;-2.24;68.12;92130.44;5030877;28;20025;-38
2022/02/01 03:05:24;;;;;;;24.58;10.20;;;;;;;-2.12;67.45;92123.72;5030453;28;20048;-37
2022/02/01 03:07:49;;;;;;;23.60;11.27;;;;;;;-2.05;66.43;92125.91;5030813;28;20033;-37
2022/02/01 03:10:15;;;;;;;20.73;9.98;;;;;;;-2.15;67.10;92130.16;5030417;28;20040;-37
2022/02/01 03:13:18;;;;;;;21.23;10.63;;;;;;;-2.20;67.67;92117.41;5030005;28;20037;-37
2022/02/01 03:20:42;;;;;;;15.63;8.90;;;;;;;-2.41;68.72;92111.59;5030628;28;20036;-37
2022/02/01 03:23:08;;;;;;;26.10;11.35;;;;;;;-2.48;69.05;92119.50;5030521;28;20530;-37
2022/02/01 03:25:33;;;;;;;27.33;10.35;;;;;;;-2.48;69.55;92119.50;5030118;28;20056;-37
2022/02/01 03:27:59;;;;;;;21.77;9.75;;;;;;;-2.47;69.28;92120.97;5033441;28;20025;-38
2022/02/01 03:30:24;;;;;;;19.70;8.45;;;;;;;-2.52;68.82;92102.81;5049987;28;20039;-37
2022/02/01 03:32:50;;;;;;;19.65;8.60;;;;;;;-2.37;68.64;92120.19;5041884;28;20025;-37
2022/02/01 03:35:15;;;;;;;15.00;6.30;;;;;;;-2.49;67.93;92113.34;5029946;28;20026;-37
2022/02/01 03:37:41;;;;;;;11.15;6.22;;;;;;;-2.57;68.01;92117.81;5029992;28;20060;-37
2022/02/01 03:40:11;;;;;;;11.52;5.53;;;;;;;-2.38;67.70;92090.94;5030025;28;20025;-37
2022/02/01 03:42:37;;;;;;;10.63;5.75;;;;;;;-2.39;68.99;92111.09;5030457;28;20028;-36
2022/02/01 03:45:03;;;;;;;16.67;6.10;;;;;;;-2.27;68.41;92107.09;5029840;28;20029;-37
2022/02/01 03:47:32;;;;;;;14.90;6.28;;;;;;;-2.55;68.97;92099.13;5029849;28;20672;-36
2022/02/01 03:49:59;;;;;;;13.82;5.15;;;;;;;-2.57;68.04;92090.78;5044415;28;20076;-37
2022/02/01 03:52:25;;;;;;;11.20;5.57;;;;;;;-2.52;66.66;92095.44;5049621;28;20025;-36
2022/02/01 03:54:50;;;;;;;17.55;6.40;;;;;;;-2.30;66.99;92083.78;5050020;28;20557;-36
2022/02/01 03:57:16;;;;;;;29.80;12.98;;;;;;;-2.41;67.64;92073.78;5049632;28;20104;-37
2022/02/01 03:59:44;;;;;;;15.77;7.20;;;;;;;-2.22;67.20;92073.16;5052301;28;20079;-36
2022/02/01 04:02:11;;;;;;;19.45;7.00;;;;;;;-2.06;65.81;92075.78;5053837;28;20025;-38
2022/02/01 04:04:36;;;;;;;18.80;8.82;;;;;;;-1.97;65.79;92077.44;5053674;28;20500;-37
2022/02/01 04:07:04;;;;;;;17.35;8.90;;;;;;;-1.76;64.51;92089.34;5053962;28;20096;-37
2022/02/01 04:09:30;;;;;;;15.60;7.38;;;;;;;-1.85;64.78;92078.84;5053888;28;20029;-37
2022/02/01 04:11:58;;;;;;;19.23;8.45;;;;;;;-1.83;65.22;92071.69;5045015;28;20045;-36
2022/02/01 04:14:27;;;;;;;41.75;10.80;;;;;;;-1.83;64.36;92077.09;5033568;28;20100;-37
2022/02/01 04:16:53;;;;;;;18.05;8.55;;;;;;;-1.68;62.23;92074.78;5033866;28;20025;-37
2022/02/01 04:19:19;;;;;;;9.70;4.10;;;;;;;-1.70;59.45;92063.72;5033496;28;20052;-37
2022/02/01 04:21:58;;;;;;;35.08;14.00;;;;;;;-1.48;59.57;92068.22;5033530;28;20022;-37
2022/02/01 04:24:23;;;;;;;33.15;14.60;;;;;;;-1.51;60.28;92058.41;5033386;28;20025;-38
2022/02/01 04:26:49;;;;;;;21.30;10.65;;;;;;;-1.45;60.59;92059.06;5033119;28;20025;-38
2022/02/01 04:29:14;;;;;;;9.70;5.80;;;;;;;-1.41;59.51;92053.41;5033263;28;20071;-37
2022/02/01 04:31:40;;;;;;;9.43;3.97;;;;;;;-1.38;58.69;92047.69;5033289;28;20084;-37
2022/02/01 04:34:05;;;;;;;8.52;4.40;;;;;;;-1.38;58.01;92038.84;5033268;28;20134;-37
2022/02/01 04:36:31;;;;;;;10.35;4.60;;;;;;;-1.28;58.04;92061.66;5033398;28;20021;-37
2022/02/01 04:38:57;;;;;;;5.47;3.75;;;;;;;-1.27;57.95;92074.69;5033581;28;20447;-38
2022/02/01 04:41:27;;;;;;;3.88;3.15;;;;;;;-1.33;57.06;92075.97;5033373;28;20507;-37
2022/02/01 04:43:54;;;;;;;8.38;3.25;;;;;;;-1.36;56.90;92082.38;5033139;28;20522;-37
2022/02/01 04:46:20;;;;;;;7.55;3.33;;;;;;;-1.25;56.27;92074.91;5032850;28;20068;-37
2022/02/01 04:48:47;;;;;;;6.95;3.38;;;;;;;-1.31;56.80;92059.94;5033006;28;20116;-37
2022/02/01 04:51:13;;;;;;;17.08;9.82;;;;;;;-1.32;58.87;92078.16;5032870;28;20083;-37
2022/02/01 04:53:39;;;;;;;24.38;13.50;;;;;;;-1.47;60.31;92075.09;5034822;28;20033;-37
2022/02/01 04:56:05;;;;;;;13.32;7.00;;;;;;;-1.56;59.46;92059.91;5052840;28;20502;-37
2022/02/01 04:58:30;;;;;;;15.57;6.38;;;;;;;-1.30;59.23;92062.13;5052637;28;20021;-37
2022/02/01 05:00:56;;;;;;;13.45;6.38;;;;;;;-1.36;57.72;92066.13;5052683;28;20021;-37
2022/02/01 05:03:21;;;;;;;13.77;6.22;;;;;;;-1.44;59.03;92047.03;5052949;28;20021;-37
2022/02/01 05:05:47;;;;;;;8.23;4.82;;;;;;;-1.23;58.56;92047.31;5052526;28;20047;-37
2022/02/01 05:08:13;;;;;;;12.85;6.13;;;;;;;-1.11;58.99;92054.09;5052798;28;20017;-37
2022/02/01 05:10:40;;;;;;;14.13;4.75;;;;;;;-0.98;58.43;92057.66;5051453;28;20434;-36
2022/02/01 05:16:00;;;;;;;9.45;5.25;;;;;;;-1.13;58.96;92056.59;5032550;28;20091;-37
2022/02/01 05:18:29;;;;;;;10.48;5.20;;;;;;;-1.14;60.22;92060.53;5032628;28;20112;-37
2022/02/01 05:20:59;;;;;;;17.52;7.15;;;;;;;-1.25;61.08;92049.78;5032759;28;20036;-37
2022/02/01 05:23:25;;;;;;;29.75;13.02;;;;;;;-1.37;60.69;92072.81;5032319;28;20041;-36
2022/02/01 05:25:51;;;;;;;33.80;18.02;;;;;;;-1.32;58.96;92080.16;5032362;28;20124;-37
2022/02/01 05:28:17;;;;;;;21.45;6.78;;;;;;;-1.11;59.05;92100.13;5031934;28;20032;-37
2022/02/01 05:30:43;;;;;;;14.55;7.25;;;;;;;-0.99;57.51;92109.63;5032425;28;20057;-37
2022/02/01 05:33:09;;;;;;;11.43;5.63;;;;;;;-0.83;56.78;92117.59;5044288;28;20433;-37
2022/02/01 05:35:34;;;;;;;11.80;4.75;;;;;;;-0.87;56.68;92132.66;5051987;28;20021;-37
2022/02/01 05:38:00;;;;;;;7.25;3.70;;;;;;;-0.96;56.30;92149.25;5052079;28;20096;-36
2022/02/01 05:40:26;;;;;;;11.27;3.80;;;;;;;-1.00;55.01;92140.66;5036379;28;20057;-36
2022/02/01 05:45:25;;;;;;;5.13;3.53;;;;;;;-1.10;55.00;92161.16;5051172;28;20033;-37
2022/02/01 05:47:51;;;;;;;6.38;4.38;;;;;;;-1.08;54.09;92169.53;5040988;28;20036;-37
2022/02/01 05:50:16;;;;;;;8.30;4.43;;;;;;;-0.96;53.96;92181.75;5040899;28;20021;-37
2022/02/01 05:52:42;;;;;;;8.05;3.92;;;;;;;-1.06;53.82;92167.06;5042401;28;20071;-37
2022/02/01 05:55:11;;;;;;;6.00;3.45;;;;;;;-0.81;54.06;92187.53;5022329;28;20600;-37
2022/02/01 05:57:36;;;;;;;9.95;3.25;;;;;;;-0.89;54.40;92164.94;5031758;28;20025;-36
2022/02/01 06:00:03;;;;;;;6.53;2.92;;;;;;;-0.78;55.17;92183.81;5031653;28;20026;-38
2022/02/01 06:02:29;;;;;;;6.53;4.05;;;;;;;-0.63;55.32;92184.16;5031936;28;20582;-37
2022/02/01 06:04:54;;;;;;;6.72;3.15;;;;;;;-0.50;57.98;92175.41;5030556;28;20108;-37
2022/02/01 06:07:20;;;;;;;15.32;4.88;;;;;;;-0.58;58.98;92175.22;5034972;28;20035;-38
2022/02/01 06:09:46;;;;;;;24.90;5.85;;;;;;;-0.70;57.30;92157.63;5049398;28;20029;-38
2022/02/01 06:12:11;;;;;;;13.65;6.10;;;;;;;-0.59;58.03;92160.22;5031222;28;20484;-37
2022/02/01 06:14:37;;;;;;;14.18;4.97;;;;;;;-0.56;59.56;92126.66;5049148;28;20033;-37
2022/02/01 06:17:03;;;;;;;14.77;6.03;;;;;;;-0.37;60.07;92140.97;5049094;28;20033;-38
2022/02/01 06:19:28;;;;;;;29.00;9.45;;;;;;;-0.33;58.42;92155.00;5049422;28;20139;-37
2022/02/01 06:21:54;;;;;;;27.30;9.32;;;;;;;-0.25;60.12;92149.75;5048703;28;20032;-38
2022/02/01 06:24:21;;;;;;;21.42;11.15;;;;;;;-0.39;59.87;92151.59;5049181;28;20033;-36
2022/02/01 06:26:46;;;;;;;43.83;20.50;;;;;;;-0.33;59.43;92154.28;5039037;28;20778;-37
2022/02/01 06:29:12;;;;;;;60.38;27.50;;;;;;;-0.19;57.93;92153.13;5028806;28;20033;-38
2022/02/01 06:31:37;;;;;;;48.97;24.58;;;;;;;-0.22;57.16;92154.16;5028818;28;20041;-39
2022/02/01 06:34:03;;;;;;;44.70;23.00;;;;;;;-0.26;58.41;92140.84;5029084;28;20026;-38
2022/02/01 06:36:29;;;;;;;33.10;17.88;;;;;;;-0.18;58.06;92146.44;5028874;28;20775;-38
2022/02/01 06:38:54;;;;;;;42.00;16.85;;;;;;;-0.06;59.66;92153.19;5044873;28;20029;-38
2022/02/01 06:41:20;;;;;;;52.25;24.00;;;;;;;0.02;57.53;92164.22;5048467;28;20529;-38
2022/02/01 06:43:46;;;;;;;64.35;27.55;;;;;;;0.06;57.95;92168.13;5048907;28;20035;-38
2022/02/01 06:46:12;;;;;;;40.95;23.42;;;;;;;0.18;58.97;92174.84;5048951;28;20036;-37
2022/02/01 06:48:38;;;;;;;69.22;26.63;;;;;;;0.20;57.86;92174.34;5049015;28;20521;-37
2022/02/01 06:51:04;;;;;;;115.28;52.17;;;;;;;0.32;58.65;92183.81;5048905;28;20029;-39
2022/02/01 06:53:35;;;;;;;74.07;34.63;;;;;;;0.34;56.49;92181.31;5048208;28;20067;-38
2022/02/01 06:56:09;;;;;;;54.53;28.55;;;;;;;0.46;56.36;92191.50;5048484;28;20577;-37
2022/02/01 06:58:35;;;;;;;47.33;23.02;;;;;;;0.21;55.43;92198.28;5048511;28;20028;-36
2022/02/01 07:01:00;;;;;;;38.22;20.38;;;;;;;0.38;55.96;92201.50;5048543;28;20426;-36
2022/02/01 07:03:26;;;;;;;39.45;21.55;;;;;;;0.52;56.12;92200.31;5048468;28;20426;-36
2022/02/01 07:05:52;;;;;;;36.88;19.42;;;;;;;0.46;55.92;92186.09;5048475;28;20407;-37
2022/02/01 07:08:18;;;;;;;37.13;15.85;;;;;;;0.75;55.04;92217.78;5048811;28;20418;-37
2022/02/01 07:10:43;;;;;;;29.30;14.48;;;;;;;0.92;55.45;92216.78;5048312;28;20033;-37
2022/02/01 07:13:09;;;;;;;31.10;13.48;;;;;;;0.98;54.82;92210.03;5030155;28;20037;-37
2022/02/01 07:15:35;;;;;;;19.45;11.10;;;;;;;1.03;53.52;92213.91;5028400;28;20036;-37
2022/02/01 07:18:00;;;;;;;22.13;11.60;;;;;;;1.13;54.86;92215.72;5027968;28;20075;-37
2022/02/01 07:20:26;;;;;;;24.27;10.18;;;;;;;1.21;55.66;92213.16;5028316;28;20037;-37
2022/02/01 07:22:52;;;;;;;17.60;8.43;;;;;;;1.16;52.87;92225.56;5026834;28;20095;-37
2022/02/01 07:25:32;;;;;;;20.00;8.98;;;;;;;1.26;53.10;92234.06;5028226;28;20446;-37
2022/02/01 07:28:02;;;;;;;16.38;9.60;;;;;;;0.69;58.44;92229.97;5027496;28;20033;-37
2022/02/01 07:30:28;;;;;;;129.88;65.00;;;;;;;0.74;58.17;92243.47;5028024;28;20041;-37
2022/02/01 07:32:58;;;;;;;61.50;31.55;;;;;;;0.81;56.31;92242.16;5027596;28;20032;-37
2022/02/01 07:35:25;;;;;;;37.40;21.52;;;;;;;1.12;56.93;92248.88;5028236;28;20029;-37
2022/02/01 07:37:52;;;;;;;33.00;17.48;;;;;;;1.27;57.28;92247.16;5028067;28;20030;-37
2022/02/01 07:40:18;;;;;;;21.30;11.90;;;;;;;1.36;55.85;92244.03;5028152;28;20026;-36
2022/02/01 07:42:44;;;;;;;30.88;15.80;;;;;;;1.57;56.45;92246.16;5027582;28;20040;-38
2022/02/01 07:45:12;;;;;;;32.95;18.42;;;;;;;1.74;56.30;92252.81;5027779;28;20026;-37
2022/02/01 07:47:38;;;;;;;35.22;17.42;;;;;;;1.89;55.34;92255.75;5027705;28;20079;-38
2022/02/01 07:50:05;;;;;;;37.03;21.67;;;;;;;1.97;54.41;92258.59;5027718;28;20029;-37
2022/02/01 07:52:30;;;;;;;44.22;20.67;;;;;;;2.07;53.21;92249.50;5027487;28;20030;-38
2022/02/01 07:54:56;;;;;;;40.05;16.17;;;;;;;2.19;55.29;92258.91;5027616;28;20045;-37
2022/02/01 07:57:22;;;;;;;23.33;9.95;;;;;;;2.21;53.83;92256.41;5042626;28;20094;-37
2022/02/01 07:59:47;;;;;;;23.45;10.35;;;;;;;2.30;52.18;92258.69;5047273;28;20072;-38
2022/02/01 08:02:20;;;;;;;17.90;9.95;;;;;;;2.45;49.85;92263.59;5047037;28;20021;-37
2022/02/01 08:04:46;;;;;;;19.83;11.02;;;;;;;2.27;51.31;92256.31;5047873;28;20029;-38
2022/02/01 08:07:12;;;;;;;39.58;19.98;;;;;;;2.38;52.14;92256.09;5047338;28;20072;-38
2022/02/01 08:09:42;;;;;;;73.00;35.17;;;;;;;2.49;52.72;92261.28;5047670;28;20032;-38
2022/02/01 08:12:24;;;;;;;79.53;38.63;;;;;;;2.72;50.85;92264.31;5037157;28;20050;-38
2022/02/01 08:22:36;;;;;;;24.17;12.10;;;;;;;3.21;49.57;92264.50;5032101;28;20495;-38
2022/02/01 08:25:02;;;;;;;35.88;20.25;;;;;;;3.34;48.70;92265.19;5030666;28;20017;-38
2022/02/01 08:27:29;;;;;;;29.90;17.33;;;;;;;3.33;48.34;92249.34;5033631;28;20045;-38
2022/02/01 08:29:54;;;;;;;49.30;17.98;;;;;;;3.22;48.19;92261.25;5034035;28;20505;-38
2022/02/01 08:32:20;;;;;;;39.20;21.67;;;;;;;2.95;46.54;92268.78;5018627;28;20030;-37
2022/02/01 08:34:45;;;;;;;23.55;13.90;;;;;;;2.79;46.94;92263.69;5034389;28;20588;-37
2022/02/01 08:37:11;;;;;;;28.48;15.65;;;;;;;2.79;47.76;92256.25;5034910;28;20036;-36
2022/02/01 08:39:37;;;;;;;21.20;12.18;;;;;;;2.99;47.86;92244.66;5034944;28;20539;-37
2022/02/01 08:42:03;;;;;;;13.27;8.68;;;;;;;3.07;46.69;92244.75;5036601;28;20474;-37
2022/02/01 08:44:29;;;;;;;28.13;19.55;;;;;;;2.91;43.98;92245.81;5039604;28;20086;-37
2022/02/01 08:46:58;;;;;;;24.20;13.77;;;;;;;2.82;45.07;92244.28;5041847;28;20036;-37
2022/02/01 08:49:25;;;;;;;16.42;8.02;;;;;;;3.10;45.83;92237.50;5040247;28;20036;-37
2022/02/01 08:52:03;;;;;;;8.88;5.80;;;;;;;3.30;46.00;92232.06;5038976;28;20030;-37
2022/02/01 08:54:31;;;;;;;9.73;5.65;;;;;;;3.54;47.94;92225.53;5038975;28;20025;-38
2022/02/01 08:59:42;;;;;;;10.82;5.35;;;;;;;3.89;47.05;92224.19;5037319;28;20040;-38
2022/02/01 09:02:08;;;;;;;10.10;4.70;;;;;;;4.00;45.80;92230.09;5038831;28;20037;-37
2022/02/01 09:04:34;;;;;;;10.55;4.70;;;;;;;3.98;43.14;92215.50;5037890;28;20470;-37
2022/02/01 09:07:01;;;;;;;17.40;5.97;;;;;;;4.00;44.82;92234.81;5039415;28;20160;-37
2022/02/01 09:09:27;;;;;;;11.38;6.90;;;;;;;4.05;45.38;92237.38;5038432;28;20031;-37
2022/02/01 09:11:53;;;;;;;20.13;10.20;;;;;;;3.84;46.04;92239.44;5034183;28;20156;-37
2022/02/01 09:14:19;;;;;;;16.42;8.30;;;;;;;3.58;45.39;92243.03;5042199;28;20607;-37
2022/02/01 09:16:45;;;;;;;13.68;6.13;;;;;;;3.44;43.59;92247.13;5041368;28;20029;-37
2022/02/01 09:19:10;;;;;;;13.50;5.80;;;;;;;3.57;42.24;92244.28;5038168;28;20033;-36
2022/02/01 09:21:36;;;;;;;12.90;6.68;;;;;;;3.62;43.94;92245.44;5040344;28;20028;-37
2022/02/01 09:24:03;;;;;;;20.58;7.57;;;;;;;3.71;45.69;92247.69;5039558;28;20114;-36
2022/02/01 09:26:29;;;;;;;16.00;7.85;;;;;;;3.59;45.55;92249.97;5035688;28;20112;-37
2022/02/01 09:28:55;;;;;;;17.95;9.05;;;;;;;3.63;45.54;92255.09;5043747;28;20039;-36
2022/02/01 09:31:22;;;;;;;13.20;8.48;;;;;;;3.66;45.94;92248.59;5039169;28;20421;-36
2022/02/01 09:33:47;;;;;;;18.08;8.05;;;;;;;3.69;45.59;92259.16;5032156;28;20446;-37
2022/02/01 09:36:13;;;;;;;11.52;5.20;;;;;;;3.69;45.05;92255.69;5045251;28;20024;-37
2022/02/01 09:38:38;;;;;;;7.82;5.18;;;;;;;3.50;46.57;92264.09;5041389;28;20052;-38
2022/02/01 09:41:04;;;;;;;12.73;5.53;;;;;;;3.61;44.96;92252.91;5047331;28;20033;-37
2022/02/01 09:43:30;;;;;;;7.53;3.97;;;;;;;3.59;45.09;92262.88;5050288;28;20128;-36
2022/02/01 09:45:58;;;;;;;9.98;4.88;;;;;;;3.56;46.12;92269.41;5050991;28;20053;-37
2022/02/01 09:48:23;;;;;;;8.35;4.85;;;;;;;3.66;46.83;92262.22;5043653;28;20715;-37
2022/02/01 09:50:50;;;;;;;11.43;6.03;;;;;;;3.71;45.34;92264.81;5038700;28;20045;-37
2022/02/01 09:53:16;;;;;;;11.82;5.38;;;;;;;3.75;45.43;92265.19;5020249;28;20058;-37
2022/02/01 09:55:41;;;;;;;14.10;6.45;;;;;;;3.67;46.21;92260.94;5037598;28;20449;-37
2022/02/01 09:58:11;;;;;;;9.57;4.43;;;;;;;3.54;45.74;92278.13;5036632;28;20025;-37
2022/02/01 10:00:44;;;;;;;19.13;6.90;;;;;;;3.52;45.46;92277.94;5020932;28;20021;-37
2022/02/01 10:03:20;;;;;;;16.20;8.98;;;;;;;3.29;45.59;92289.88;5036935;28;20029;-37
2022/02/01 10:06:11;;;;;;;11.70;3.80;;;;;;;3.33;45.63;92285.56;5041166;28;20032;-37
2022/02/01 10:08:37;;;;;;;8.40;3.65;;;;;;;3.10;45.29;92281.84;5037061;28;20032;-37
2022/02/01 10:11:05;;;;;;;7.38;3.42;;;;;;;3.06;45.59;92290.34;5035540;28;20060;-37
2022/02/01 10:13:34;;;;;;;6.45;3.83;;;;;;;2.95;45.59;92284.41;5044641;28;20116;-37
2022/02/01 10:16:09;;;;;;;7.03;4.00;;;;;;;3.05;44.92;92279.97;5042425;28;20477;-37
2022/02/01 10:18:35;;;;;;;9.57;4.75;;;;;;;2.82;45.44;92268.06;5038575;28;20640;-37
2022/02/01 10:21:07;;;;;;;22.20;6.22;;;;;;;2.99;45.72;92293.72;5044425;28;20026;-37
2022/02/01 10:23:34;;;;;;;14.18;6.03;;;;;;;3.21;45.89;92299.94;5048351;28;20043;-37
2022/02/01 10:26:21;;;;;;;14.65;7.28;;;;;;;3.50;46.80;92287.91;5039015;28;20033;-37
2022/02/01 10:31:42;;;;;;;15.95;6.05;;;;;;;3.46;44.45;92273.84;5039926;28;20514;-38
2022/02/01 10:34:26;;;;;;;7.03;3.33;;;;;;;3.51;43.12;92283.91;5036253;28;20032;-37
2022/02/01 10:36:53;;;;;;;16.58;5.57;;;;;;;3.36;44.08;92286.47;5039653;28;20025;-36
2022/02/01 10:39:24;;;;;;;11.88;4.47;;;;;;;3.63;43.12;92288.59;5041438;28;20498;-37
2022/02/01 10:41:52;;;;;;;15.60;7.32;;;;;;;3.53;44.65;92287.56;5037906;28;20025;-37
2022/02/01 10:44:19;;;;;;;48.23;18.23;;;;;;;3.60;45.69;92280.72;5040219;28;20494;-37
2022/02/01 10:46:52;;;;;;;23.20;12.38;;;;;;;3.84;46.66;92275.66;5038682;28;20025;-38
2022/02/01 10:49:30;;;;;;;15.70;7.38;;;;;;;3.99;46.22;92277.03;5038823;28;20028;-38
2022/02/01 10:52:15;;;;;;;8.85;5.28;;;;;;;4.27;46.52;92288.72;5035361;28;20036;-37
2022/02/01 10:54:43;;;;;;;11.60;6.25;;;;;;;4.40;46.17;92274.22;5035595;28;20107;-37
2022/02/01 10:57:11;;;;;;;15.27;5.82;;;;;;;4.53;46.72;92283.06;5040461;28;20021;-37
2022/02/01 10:59:37;;;;;;;10.10;5.60;;;;;;;4.32;43.99;92278.91;5035674;28;20036;-38
2022/02/01 11:02:05;;;;;;;12.38;6.28;;;;;;;4.32;44.89;92276.94;5039325;28;20039;-37
2022/02/01 11:04:33;;;;;;;11.48;6.32;;;;;;;4.27;42.57;92280.53;5040578;28;20075;-36
2022/02/01 11:06:59;;;;;;;7.80;4.35;;;;;;;3.90;43.47;92272.78;5038659;28;20029;-37
2022/02/01 11:09:28;;;;;;;6.82;3.42;;;;;;;3.83;43.64;92268.72;5039461;28;20037;-36
2022/02/01 11:11:59;;;;;;;15.18;5.97;;;;;;;3.79;44.47;92273.03;5034627;28;20137;-37
2022/02/01 11:14:26;;;;;;;11.77;5.90;;;;;;;3.75;45.51;92278.84;5011936;28;20112;-37
2022/02/01 11:17:14;;;;;;;10.27;5.53;;;;;;;3.84;46.16;92272.94;5033923;28;20017;-37
2022/02/01 11:19:57;;;;;;;9.52;3.75;;;;;;;3.91;45.27;92276.97;5035710;28;20021;-38
2022/02/01 11:22:31;;;;;;;12.73;4.38;;;;;;;3.87;43.64;92279.31;5039316;28;20503;-37
2022/02/01 11:25:15;;;;;;;8.73;4.88;;;;;;;3.85;45.12;92262.75;5039671;28;20106;-37
2022/02/01 11:27:57;;;;;;;9.57;5.45;;;;;;;3.75;45.23;92256.28;5039959;28;20123;-38
2022/02/01 11:30:23;;;;;;;5.60;3.17;;;;;;;3.91;43.71;92257.88;5034857;28;20021;-37
2022/02/01 11:32:51;;;;;;;8.35;5.50;;;;;;;3.94;45.53;92254.09;5039999;28;20017;-36
2022/02/01 11:35:23;;;;;;;13.15;4.72;;;;;;;3.78;45.60;92255.97;5037281;28;20082;-37
2022/02/01 11:37:54;;;;;;;13.55;6.65;;;;;;;3.79;45.91;92257.41;5038059;28;20105;-37
2022/02/01 11:40:21;;;;;;;10.73;5.57;;;;;;;3.84;45.13;92261.28;5038262;28;20020;-37
2022/02/01 11:42:59;;;;;;;16.48;4.15;;;;;;;3.41;44.20;92261.81;5039848;28;20024;-36
2022/02/01 11:45:51;;;;;;;9.15;3.30;;;;;;;3.18;45.47;92262.84;5040148;28;20457;-37
2022/02/01 11:48:28;;;;;;;9.25;5.28;;;;;;;3.25;46.57;92254.00;5025613;28;20040;-36
2022/02/01 11:51:07;;;;;;;10.50;5.28;;;;;;;3.31;46.67;92244.44;5037105;28;20020;-37
2022/02/01 11:53:32;;;;;;;8.52;4.35;;;;;;;3.35;45.80;92255.00;5036854;28;20033;-37
2022/02/01 11:55:59;;;;;;;12.40;6.70;;;;;;;3.12;46.69;92254.78;5039363;28;20041;-37
2022/02/01 11:58:41;;;;;;;11.30;4.38;;;;;;;3.28;46.42;92253.69;5039030;28;20104;-36
2022/02/01 12:01:31;;;;;;;11.75;4.78;;;;;;;3.21;46.73;92256.31;5036866;28;20017;-37
2022/02/01 12:04:06;;;;;;;17.75;9.27;;;;;;;3.30;47.27;92258.59;5020569;28;20030;-37
2022/02/01 12:06:45;;;;;;;11.70;6.07;;;;;;;3.04;46.68;92257.44;5037439;28;20022;-36
2022/02/01 12:09:19;;;;;;;14.88;6.25;;;;;;;2.96;48.05;92250.44;5037406;28;20564;-36
2022/02/01 12:11:45;;;;;;;11.80;6.60;;;;;;;2.86;48.66;92261.03;5036705;28;20125;-36
2022/02/01 12:14:11;;;;;;;16.77;7.13;;;;;;;2.81;48.61;92256.44;5039419;28;20104;-36
2022/02/01 12:16:36;;;;;;;9.30;5.20;;;;;;;2.67;48.23;92249.53;5025985;28;20112;-37
2022/02/01 12:19:06;;;;;;;8.55;3.58;;;;;;;2.65;48.64;92265.69;5042774;28;20112;-37
2022/02/01 12:21:37;;;;;;;;;;;;;;;2.66;49.41;92264.44;5041014;28;20029;-36
2022/02/01 12:24:04;;;;;;;27.13;10.85;;;;;;;2.31;49.30;92262.16;5044811;28;19908;-36
2022/02/01 12:26:33;;;;;;;20.60;9.48;;;;;;;2.20;50.93;92276.00;5038014;28;20503;-37
2022/02/01 12:29:00;;;;;;;9.00;4.03;;;;;;;2.25;50.71;92258.81;5044352;28;20525;-37
2022/02/01 12:31:30;;;;;;;14.48;6.43;;;;;;;2.21;51.87;92261.09;5044148;28;20029;-37
2022/02/01 12:33:58;;;;;;;9.70;3.88;;;;;;;2.07;50.97;92273.25;5042431;28;20061;-36
2022/02/01 12:36:28;;;;;;;10.43;4.80;;;;;;;1.73;52.39;92266.94;5047520;28;20028;-36
2022/02/01 12:39:06;;;;;;;12.88;5.22;;;;;;;1.72;53.19;92268.19;5048784;28;20090;-37
2022/02/01 12:41:42;;;;;;;25.80;15.13;;;;;;;1.64;53.67;92270.03;5032437;28;20033;-36
2022/02/01 12:46:51;;;;;;;16.58;7.53;;;;;;;1.61;54.37;92244.63;5049969;28;20036;-36
2022/02/01 12:49:17;;;;;;;11.90;5.28;;;;;;;1.96;53.26;92274.19;5052935;28;20033;-37
2022/02/01 12:51:49;;;;;;;17.00;9.10;;;;;;;1.95;53.99;92283.59;5052902;28;20087;-36
2022/02/01 12:54:22;;;;;;;14.07;8.20;;;;;;;1.97;54.40;92280.38;5052859;28;20449;-36
2022/02/01 12:56:48;;;;;;;14.25;6.45;;;;;;;2.06;55.01;92282.66;5043702;28;20051;-37
2022/02/01 12:59:14;;;;;;;11.70;4.15;;;;;;;1.98;54.85;92279.84;5050267;28;20131;-37
2022/02/01 13:01:40;;;;;;;15.90;7.63;;;;;;;1.78;54.93;92279.69;5045636;28;20079;-36
2022/02/01 13:04:06;;;;;;;15.68;5.80;;;;;;;1.76;56.36;92288.38;5041282;28;20028;-36
2022/02/01 13:06:36;;;;;;;10.38;3.38;;;;;;;1.79;55.21;92289.34;5050347;28;20016;-36
2022/02/01 13:22:35;;;;;;;10.77;5.82;;;;;;;1.22;60.61;92307.03;5034555;28;20090;-36